Time;durP1;ratioP1;P1;durP2;ratioP2;P2;SDS_P1;SDS_P2;PMS_P1;PMS_P2;Temp;Humidity;BMP_temperature;BMP_pressure;BME280_temperature;BME280_humidity;BME280_pressure;Samples;Min_cycle;Max_cycle;Signal;HPM_P1;HPM_P2
2022/10/26 00:01:51;;;;;;;9.13;5.08;;;;;;;15.50;83.91;100010.09;1743189;82;21264;-78
2022/10/26 00:04:59;;;;;;;8.25;4.50;;;;;;;15.48;83.56;100010.82;1743552;81;21277;-78
2022/10/26 00:08:05;;;;;;;9.68;5.22;;;;;;;15.33;83.81;100008.31;1744530;82;21194;-78
2022/10/26 00:11:10;;;;;;;7.50;4.05;;;;;;;15.36;83.97;99997.41;1744353;82;21169;-78
2022/10/26 00:14:02;;;;;;;5.25;3.55;;;;;;;15.34;83.16;99990.73;1744559;82;21217;-79
2022/10/26 00:17:08;;;;;;;16.67;4.53;;;;;;;15.54;81.83;99992.91;1743326;82;21763;-79
2022/10/26 00:20:08;;;;;;;7.58;3.35;;;;;;;15.24;82.41;99984.80;1743815;81;21189;-79
2022/10/26 00:23:15;;;;;;;7.80;3.37;;;;;;;15.08;83.17;99986.10;1743242;82;21169;-79
2022/10/26 00:26:21;;;;;;;12.60;3.60;;;;;;;15.48;81.42;99986.02;1743285;82;21229;-78
2022/10/26 00:29:28;;;;;;;8.00;3.75;;;;;;;15.21;81.75;99986.63;1743182;82;21308;-78
2022/10/26 00:32:35;;;;;;;6.15;3.90;;;;;;;14.79;83.25;99975.00;1743536;82;21169;-78
2022/10/26 00:35:42;;;;;;;12.20;4.00;;;;;;;14.80;84.05;99982.20;1743371;81;21275;-79
2022/10/26 00:38:48;;;;;;;13.05;4.35;;;;;;;14.60;84.41;99978.60;1744483;82;21744;-79
2022/10/26 00:41:53;;;;;;;8.15;3.75;;;;;;;14.49;85.37;99978.67;1744029;82;21197;-79
2022/10/26 00:45:09;;;;;;;7.12;4.15;;;;;;;14.64;85.49;99978.50;1744633;82;21173;-79
2022/10/26 00:48:20;;;;;;;7.15;3.87;;;;;;;14.85;83.83;99979.66;1744629;82;21747;-79
2022/10/26 00:51:49;;;;;;;9.75;4.47;;;;;;;14.84;84.24;99968.33;1744517;82;21261;-79
2022/10/26 00:54:55;;;;;;;9.60;4.28;;;;;;;14.59;85.20;99967.28;1744581;82;21209;-79
2022/10/26 00:58:01;;;;;;;5.28;3.83;;;;;;;14.70;85.13;99952.88;1743213;82;21792;-79
2022/10/26 01:01:08;;;;;;;7.78;4.00;;;;;;;14.75;85.12;99951.17;1743080;82;21309;-79
2022/10/26 01:04:14;;;;;;;10.30;4.45;;;;;;;15.03;83.67;99939.92;1743160;81;21776;-79
2022/10/26 01:07:21;;;;;;;6.22;4.22;;;;;;;14.86;84.50;99932.31;1744619;82;21244;-78
2022/10/26 01:10:28;;;;;;;8.88;4.15;;;;;;;14.80;84.72;99921.62;1743269;82;21791;-78
2022/10/26 01:13:36;;;;;;;9.85;4.60;;;;;;;14.69;85.40;99920.38;1743280;82;21193;-79
2022/10/26 01:16:54;;;;;;;8.65;4.50;;;;;;;14.88;84.87;99918.66;1743321;82;21783;-78
2022/10/26 01:20:32;;;;;;;9.23;4.12;;;;;;;14.71;85.31;99921.52;1744427;82;21217;-78
2022/10/26 01:23:51;;;;;;;8.93;4.50;;;;;;;14.55;86.44;99923.66;1739494;82;21213;-78
2022/10/26 01:27:14;;;;;;;11.38;5.47;;;;;;;14.61;86.61;99915.08;1744652;82;22361;-78
2022/10/26 01:30:28;;;;;;;9.53;4.95;;;;;;;14.88;86.05;99910.94;1737366;82;21748;-78
2022/10/26 01:33:50;;;;;;;14.00;5.87;;;;;;;14.72;86.36;99910.83;1743582;82;21189;-78
2022/10/26 01:37:01;;;;;;;10.85;6.53;;;;;;;14.77;86.84;99906.90;1743345;81;21225;-78
2022/10/26 01:40:16;;;;;;;9.98;6.30;;;;;;;14.71;87.19;99900.88;1744889;82;21189;-78
2022/10/26 01:43:22;;;;;;;10.72;6.78;;;;;;;14.99;86.06;99893.74;1743967;82;21221;-78
2022/10/26 01:46:29;;;;;;;15.15;6.10;;;;;;;14.95;86.62;99890.56;1745154;82;21182;-78
2022/10/26 01:49:39;;;;;;;8.70;5.28;;;;;;;14.83;87.25;99882.66;1743576;82;21264;-78
2022/10/26 01:52:46;;;;;;;12.58;5.67;;;;;;;14.99;87.00;99891.83;1744611;82;21201;-78
2022/10/26 01:55:55;;;;;;;13.80;5.62;;;;;;;14.92;87.01;99888.27;1745228;82;21241;-78
2022/10/26 01:59:34;;;;;;;10.97;5.40;;;;;;;14.98;87.24;99887.39;1745415;80;21222;-78
2022/10/26 02:03:06;;;;;;;11.90;5.63;;;;;;;14.95;87.15;99889.19;1740885;82;21217;-78
2022/10/26 02:06:35;;;;;;;13.13;5.53;;;;;;;15.07;87.07;99881.97;1744521;81;21221;-78
2022/10/26 02:09:41;;;;;;;9.00;5.15;;;;;;;14.92;87.51;99881.38;1744320;82;21209;-78
2022/10/26 02:13:18;;;;;;;8.93;5.45;;;;;;;14.91;87.89;99870.02;1732560;82;21293;-78
2022/10/26 02:16:42;;;;;;;13.83;6.12;;;;;;;14.89;87.69;99876.83;1743632;82;21177;-78
2022/10/26 02:20:00;;;;;;;8.38;5.90;;;;;;;14.90;88.10;99875.22;1744868;82;21150;-78
2022/10/26 02:23:10;;;;;;;10.98;5.50;;;;;;;15.32;86.21;99865.56;1744137;82;21229;-78
2022/10/26 02:26:18;;;;;;;10.70;5.70;;;;;;;15.06;87.32;99861.00;1744728;82;21748;-78
2022/10/26 02:29:26;;;;;;;11.40;6.00;;;;;;;15.01;87.80;99858.05;1744996;82;21225;-78
2022/10/26 02:32:33;;;;;;;9.80;6.08;;;;;;;15.10;87.65;99862.77;1744714;82;21327;-78
2022/10/26 02:35:41;;;;;;;11.43;6.47;;;;;;;15.02;87.89;99859.73;1743350;81;21194;-78
2022/10/26 02:38:47;;;;;;;17.80;9.55;;;;;;;14.90;88.59;99843.55;1745261;82;21186;-78
2022/10/26 02:41:54;;;;;;;21.95;11.70;;;;;;;14.79;89.41;99841.47;1744577;82;21256;-77
2022/10/26 02:45:06;;;;;;;14.15;9.05;;;;;;;14.75;89.86;99844.34;1744677;82;21173;-79
2022/10/26 02:48:13;;;;;;;15.23;8.88;;;;;;;14.88;89.47;99844.31;1743253;82;21189;-79
2022/10/26 02:51:34;;;;;;;12.75;8.48;;;;;;;14.87;89.44;99839.88;1744513;81;21824;-78
2022/10/26 02:55:01;;;;;;;14.10;7.58;;;;;;;14.94;89.24;99837.94;1743456;82;21495;-77
2022/10/26 02:58:09;;;;;;;11.28;6.97;;;;;;;14.86;89.67;99832.66;1750888;81;21756;-77
2022/10/26 03:01:15;;;;;;;15.28;8.00;;;;;;;14.86;89.79;99828.52;1770905;81;21228;-78
2022/10/26 03:04:15;;;;;;;15.48;7.53;;;;;;;14.88;89.82;99829.17;1769912;81;21217;-78
2022/10/26 03:07:29;;;;;;;12.07;8.80;;;;;;;14.93;89.74;99821.10;1769732;80;21751;-78
2022/10/26 03:10:34;;;;;;;19.35;9.88;;;;;;;14.98;89.66;99816.33;1769662;81;21634;-78
2022/10/26 03:13:40;;;;;;;23.40;10.20;;;;;;;15.02;89.79;99819.80;1769482;81;21189;-78
2022/10/26 03:16:45;;;;;;;16.15;9.00;;;;;;;15.16;89.06;99819.77;1770875;81;21724;-78
2022/10/26 03:19:51;;;;;;;17.48;8.05;;;;;;;14.99;89.86;99818.01;1770859;81;21161;-78
2022/10/26 03:22:57;;;;;;;13.65;6.65;;;;;;;15.16;89.62;99811.50;1769986;80;21228;-78
2022/10/26 03:26:05;;;;;;;11.80;6.53;;;;;;;15.02;89.97;99811.55;1770895;81;21185;-79
2022/10/26 03:29:11;;;;;;;10.48;5.92;;;;;;;14.96;90.77;99817.05;1770983;81;21193;-78
2022/10/26 03:32:17;;;;;;;13.55;6.70;;;;;;;14.88;90.83;99809.89;1769478;81;21221;-78
2022/10/26 03:35:22;;;;;;;11.22;6.58;;;;;;;14.78;92.41;99801.25;1769474;81;21189;-78
2022/10/26 03:38:27;;;;;;;7.95;5.92;;;;;;;14.95;91.25;99794.18;1770498;80;21217;-78
2022/10/26 03:41:32;;;;;;;15.03;7.08;;;;;;;14.74;92.58;99793.94;1770950;81;21189;-78
2022/10/26 03:44:39;;;;;;;11.35;6.22;;;;;;;15.06;91.22;99792.68;1770130;81;21204;-78
2022/10/26 03:47:53;;;;;;;12.53;6.50;;;;;;;15.13;90.48;99787.97;1770818;81;21216;-79
2022/10/26 03:50:59;;;;;;;11.83;6.55;;;;;;;15.30;89.28;99788.33;1771094;81;21190;-79
2022/10/26 03:54:05;;;;;;;10.58;5.72;;;;;;;15.15;90.37;99783.11;1769525;81;21823;-79
2022/10/26 03:57:12;;;;;;;10.53;6.80;;;;;;;15.11;90.47;99780.47;1770858;81;21887;-79
2022/10/26 04:00:19;;;;;;;13.75;6.67;;;;;;;15.02;91.01;99774.36;1753117;81;21264;-79
2022/10/26 04:03:26;;;;;;;11.53;7.12;;;;;;;15.11;91.00;99771.38;1743357;81;21265;-81
2022/10/26 04:06:33;;;;;;;11.12;6.35;;;;;;;15.08;91.05;99776.23;1744742;82;21185;-79
2022/10/26 04:09:39;;;;;;;9.08;5.87;;;;;;;15.00;91.54;99768.75;1744140;82;21233;-79
2022/10/26 04:12:45;;;;;;;10.05;6.05;;;;;;;14.89;91.87;99769.44;1744687;82;21166;-79
2022/10/26 04:15:51;;;;;;;13.00;7.00;;;;;;;14.96;92.04;99769.73;1743226;82;21197;-79
2022/10/26 04:18:57;;;;;;;10.45;6.00;;;;;;;15.10;91.56;99770.50;1743488;82;21174;-79
2022/10/26 04:22:03;;;;;;;10.08;5.55;;;;;;;14.87;92.33;99771.04;1744606;82;21193;-78
2022/10/26 04:25:11;;;;;;;11.60;6.50;;;;;;;14.71;93.60;99767.38;1743943;82;21205;-80
2022/10/26 04:28:16;;;;;;;9.00;5.90;;;;;;;14.79;93.95;99767.14;1744700;82;21216;-79
2022/10/26 04:31:23;;;;;;;9.58;5.62;;;;;;;14.86;93.79;99773.98;1743238;82;21213;-80
2022/10/26 04:34:30;;;;;;;9.15;5.40;;;;;;;14.97;93.52;99763.16;1744404;82;21197;-80
2022/10/26 04:37:35;;;;;;;8.75;5.12;;;;;;;15.04;93.53;99761.73;1744698;82;21197;-80
2022/10/26 04:40:41;;;;;;;10.40;5.78;;;;;;;15.22;92.64;99755.52;1743956;82;21190;-80
2022/10/26 04:43:47;;;;;;;7.80;5.28;;;;;;;15.13;93.04;99752.70;1744255;82;21241;-80
2022/10/26 04:46:53;;;;;;;7.05;4.75;;;;;;;15.01;93.90;99758.91;1744158;82;21808;-79
2022/10/26 04:50:00;;;;;;;5.65;3.92;;;;;;;15.06;94.50;99756.34;1744565;82;21221;-80
2022/10/26 04:53:06;;;;;;;7.95;4.58;;;;;;;15.18;93.75;99762.52;1744496;82;21750;-80
2022/10/26 04:56:11;;;;;;;5.33;4.00;;;;;;;15.06;94.70;99758.25;1743553;82;21194;-80
2022/10/26 04:59:18;;;;;;;5.55;3.70;;;;;;;14.92;95.79;99751.95;1755037;80;21783;-80
2022/10/26 05:02:25;;;;;;;6.62;4.60;;;;;;;15.03;95.89;99759.52;1778875;80;21256;-81
2022/10/26 05:05:30;;;;;;;8.18;3.98;;;;;;;15.21;95.52;99760.72;1778225;80;21252;-81
2022/10/26 05:08:37;;;;;;;5.75;3.30;;;;;;;15.18;95.11;99757.02;1778577;80;21293;-81
2022/10/26 05:11:43;;;;;;;6.83;3.70;;;;;;;15.24;94.67;99760.26;1778697;80;21176;-80
2022/10/26 05:14:49;;;;;;;6.25;3.75;;;;;;;15.05;96.12;99765.64;1787381;80;21232;-80
2022/10/26 05:18:04;;;;;;;3.40;2.75;;;;;;;15.16;95.79;99762.75;1743329;82;21807;-80
2022/10/26 05:21:11;;;;;;;5.78;2.65;;;;;;;15.13;95.82;99770.06;1743040;82;21192;-80
2022/10/26 05:24:17;;;;;;;4.28;3.37;;;;;;;15.07;96.77;99764.91;1718097;82;21212;-80
2022/10/26 05:27:25;;;;;;;4.42;3.50;;;;;;;15.11;96.97;99763.11;1692070;82;21236;-79
2022/10/26 05:30:33;;;;;;;8.65;3.20;;;;;;;15.02;97.62;99769.39;1686487;82;21180;-79
2022/10/26 05:33:38;;;;;;;3.77;2.70;;;;;;;15.26;96.59;99767.25;1706984;84;21197;-79
2022/10/26 05:36:44;;;;;;;4.00;2.62;;;;;;;15.47;96.14;99766.59;1706797;84;21181;-79
2022/10/26 05:39:50;;;;;;;4.60;3.05;;;;;;;15.21;96.96;99769.83;1706840;84;21839;-79
2022/10/26 05:42:55;;;;;;;4.05;2.47;;;;;;;15.32;96.69;99779.30;1719238;82;21201;-82
2022/10/26 05:46:01;;;;;;;2.95;2.20;;;;;;;15.47;95.63;99772.95;1726858;82;21209;-79
2022/10/26 05:49:07;;;;;;;3.92;2.50;;;;;;;15.47;95.45;99776.24;1734021;82;21249;-80
2022/10/26 05:52:14;;;;;;;3.22;2.42;;;;;;;15.52;95.84;99772.29;1712398;83;21193;-80
2022/10/26 05:55:23;;;;;;;9.40;2.50;;;;;;;15.68;94.62;99768.20;1740898;82;21264;-81
2022/10/26 05:58:30;;;;;;;4.37;2.58;;;;;;;15.73;95.21;99772.52;1711485;83;21233;-79
2022/10/26 06:02:21;;;;;;;3.52;2.20;;;;;;;15.67;94.19;99772.04;1712322;82;21236;-80
2022/10/26 06:05:32;;;;;;;3.45;2.25;;;;;;;15.78;94.57;99783.19;1755603;81;21189;-79
2022/10/26 06:08:38;;;;;;;4.92;2.70;;;;;;;15.92;94.02;99770.14;1755443;81;21208;-79
2022/10/26 06:11:46;;;;;;;3.92;2.50;;;;;;;15.87;94.16;99764.45;1739702;81;21177;-79
2022/10/26 06:14:52;;;;;;;2.85;2.47;;;;;;;15.83;94.69;99775.62;1750362;81;21198;-79
2022/10/26 06:18:15;;;;;;;3.75;2.80;;;;;;;15.64;95.87;99766.96;1753083;81;21284;-79
2022/10/26 06:21:27;;;;;;;5.72;2.98;;;;;;;15.73;95.96;99769.77;1751368;81;21194;-79
2022/10/26 06:25:15;;;;;;;6.42;3.45;;;;;;;15.76;96.06;99767.91;1746753;81;21198;-79
2022/10/26 06:28:57;;;;;;;5.85;3.58;;;;;;;15.89;95.59;99772.50;1744554;81;21188;-79
2022/10/26 06:32:03;;;;;;;4.10;3.08;;;;;;;15.97;95.40;99775.83;1749310;81;21472;-80
2022/10/26 06:35:46;;;;;;;6.47;3.27;;;;;;;15.78;95.99;99776.83;1752782;81;21180;-79
2022/10/26 06:38:54;;;;;;;6.33;3.00;;;;;;;15.78;96.55;99780.96;1730253;81;21288;-80
2022/10/26 06:42:00;;;;;;;4.70;2.98;;;;;;;15.90;96.12;99783.29;1745326;81;21192;-79
2022/10/26 06:45:08;;;;;;;6.78;3.02;;;;;;;15.98;95.80;99783.56;1723525;81;21212;-79
2022/10/26 06:48:21;;;;;;;5.85;2.83;;;;;;;16.07;95.42;99785.81;1740165;81;21180;-78
2022/10/26 06:51:32;;;;;;;6.03;3.37;;;;;;;16.02;95.25;99785.65;1746780;81;21754;-79
2022/10/26 06:54:56;;;;;;;5.35;2.85;;;;;;;15.86;95.94;99793.11;1743387;81;21251;-79
2022/10/26 06:58:02;;;;;;;7.10;3.25;;;;;;;15.93;96.03;99788.37;1738839;81;21180;-79
2022/10/26 07:01:09;;;;;;;3.72;3.10;;;;;;;15.97;95.68;99790.16;1729341;81;21169;-79
2022/10/26 07:04:16;;;;;;;5.25;2.52;;;;;;;16.03;95.72;99787.87;1711030;82;21204;-79
2022/10/26 07:07:27;;;;;;;4.47;2.67;;;;;;;16.12;94.36;99789.81;1723108;82;21209;-79
2022/10/26 07:10:34;;;;;;;;;;;;;;;16.00;95.51;99785.05;1714636;83;21209;-79
2022/10/26 07:13:39;;;;;;;2.80;1.80;;;;;;;16.32;94.42;99782.20;1736991;82;20216;-79
2022/10/26 07:16:45;;;;;;;3.27;2.20;;;;;;;16.44;93.99;99790.59;1710585;82;21220;-80
2022/10/26 07:19:52;;;;;;;2.50;2.25;;;;;;;16.46;93.80;99790.66;1723397;82;21788;-79
2022/10/26 07:23:00;;;;;;;4.95;1.90;;;;;;;16.41;94.07;99794.64;1712851;83;21217;-79
2022/10/26 07:26:08;;;;;;;2.05;1.85;;;;;;;16.18;94.54;99795.27;1713131;83;21209;-78
2022/10/26 07:29:18;;;;;;;3.87;2.60;;;;;;;16.33;95.08;99796.33;1709227;83;21238;-79
2022/10/26 07:32:24;;;;;;;6.78;2.50;;;;;;;16.42;94.38;99796.86;1711987;83;21178;-79
2022/10/26 07:35:31;;;;;;;4.40;3.35;;;;;;;16.34;95.11;99790.58;1707199;82;21360;-79
2022/10/26 07:38:36;;;;;;;9.68;6.53;;;;;;;16.37;95.16;99790.64;1714859;83;21189;-80
2022/10/26 07:41:42;;;;;;;16.70;10.43;;;;;;;16.57;93.96;99782.19;1707202;83;21244;-79
2022/10/26 07:44:47;;;;;;;18.75;13.55;;;;;;;16.60;93.93;99784.47;1734372;82;21548;-79
2022/10/26 07:47:52;;;;;;;16.37;12.35;;;;;;;16.43;94.81;99787.53;1713026;82;21613;-79
2022/10/26 07:50:58;;;;;;;17.85;9.98;;;;;;;16.38;95.41;99796.50;1737690;82;21220;-80
2022/10/26 07:54:05;;;;;;;9.13;6.17;;;;;;;16.56;94.98;99792.39;1727459;82;21212;-79
2022/10/26 07:57:11;;;;;;;5.83;4.03;;;;;;;16.50;95.12;99791.90;1704216;83;21224;-80
2022/10/26 08:00:19;;;;;;;5.22;4.53;;;;;;;16.41;95.92;99790.50;1733861;82;21205;-80
2022/10/26 08:03:25;;;;;;;8.85;5.60;;;;;;;16.50;95.51;99790.52;1744535;81;21740;-80
2022/10/26 08:06:34;;;;;;;8.68;5.67;;;;;;;16.34;96.05;99791.12;1731290;82;21240;-80
2022/10/26 08:09:39;;;;;;;11.78;8.45;;;;;;;16.48;95.95;99785.77;1759858;81;21232;-79
2022/10/26 08:12:45;;;;;;;10.72;8.75;;;;;;;16.50;95.74;99789.14;1757399;81;21228;-80
2022/10/26 08:15:50;;;;;;;10.95;9.50;;;;;;;16.61;95.48;99788.41;1751574;81;21522;-80
2022/10/26 08:18:58;;;;;;;15.83;11.10;;;;;;;16.91;94.25;99793.20;1753331;81;21184;-81
2022/10/26 08:22:05;;;;;;;20.40;12.18;;;;;;;17.03;93.10;99791.88;1740007;81;21165;-81
2022/10/26 08:25:12;;;;;;;26.33;17.62;;;;;;;16.73;94.68;99794.58;1748236;81;21431;-81
2022/10/26 08:28:19;;;;;;;25.27;15.88;;;;;;;16.63;95.43;99799.75;1758537;81;21248;-80
2022/10/26 08:31:26;;;;;;;30.62;16.67;;;;;;;16.77;94.91;99805.47;1716908;82;21241;-81
2022/10/26 08:34:32;;;;;;;28.07;16.95;;;;;;;16.72;94.82;99798.41;1748176;82;21196;-81
2022/10/26 08:37:39;;;;;;;29.05;17.70;;;;;;;16.64;95.30;99801.44;1739151;81;21340;-79
2022/10/26 08:40:48;;;;;;;33.38;18.80;;;;;;;16.80;94.61;99804.48;1733415;81;21296;-79
2022/10/26 08:44:01;;;;;;;35.20;19.57;;;;;;;16.50;95.76;99809.84;1734084;81;21189;-79
2022/10/26 08:47:29;;;;;;;38.73;19.60;;;;;;;16.68;95.15;99810.41;1737309;81;21215;-78
2022/10/26 08:50:39;;;;;;;36.25;18.90;;;;;;;16.67;94.81;99806.51;1742516;81;21184;-79
2022/10/26 08:54:07;;;;;;;39.38;21.02;;;;;;;16.75;94.26;99804.33;1693665;84;21203;-78
2022/10/26 08:57:21;;;;;;;42.90;24.65;;;;;;;16.62;94.65;99805.81;1692309;84;21259;-79
2022/10/26 09:00:27;;;;;;;46.20;24.50;;;;;;;16.57;95.31;99803.73;1757665;80;21191;-81
2022/10/26 09:03:33;;;;;;;51.33;27.58;;;;;;;16.66;95.41;99806.21;1729609;83;21183;-79
2022/10/26 09:07:02;;;;;;;51.75;26.02;;;;;;;16.61;95.26;99806.89;1735173;81;21156;-80
2022/10/26 09:10:18;;;;;;;69.45;31.37;;;;;;;16.60;95.84;99810.16;1746060;81;21196;-80
2022/10/26 09:13:40;;;;;;;67.17;31.12;;;;;;;16.64;95.39;99807.80;1740705;81;21184;-79
2022/10/26 09:17:15;;;;;;;77.08;35.20;;;;;;;17.07;93.46;99814.67;1741991;81;21844;-79
2022/10/26 09:20:35;;;;;;;79.87;35.33;;;;;;;16.98;93.35;99816.59;1758944;80;21160;-79
2022/10/26 09:24:20;;;;;;;96.92;37.40;;;;;;;16.99;93.26;99815.55;1734207;81;21271;-79
2022/10/26 09:27:37;;;;;;;94.42;40.35;;;;;;;16.94;93.42;99817.62;1710097;83;21269;-79
2022/10/26 09:30:44;;;;;;;100.55;40.75;;;;;;;16.85;93.73;99818.99;1762927;80;21302;-79
2022/10/26 09:33:50;;;;;;;88.37;39.65;;;;;;;16.81;93.73;99815.83;1759784;80;21161;-81
2022/10/26 09:37:00;;;;;;;90.92;37.93;;;;;;;16.76;94.42;99813.45;1699876;83;21204;-79
2022/10/26 09:40:21;;;;;;;91.45;37.58;;;;;;;16.71;94.31;99816.03;1741493;80;21191;-79
2022/10/26 09:43:31;;;;;;;91.25;40.90;;;;;;;16.66;94.43;99819.47;1733935;81;21176;-79
2022/10/26 09:46:50;;;;;;;84.60;37.03;;;;;;;16.62;94.22;99816.86;1699268;83;21278;-78
2022/10/26 09:50:02;;;;;;;87.45;39.98;;;;;;;16.84;93.58;99820.04;1767113;80;21259;-79
2022/10/26 09:53:08;;;;;;;75.95;36.20;;;;;;;16.91;93.33;99821.36;1778968;80;21179;-81
2022/10/26 09:56:21;;;;;;;81.60;36.17;;;;;;;16.76;94.29;99822.58;1743578;81;21179;-80
2022/10/26 09:59:29;;;;;;;78.70;38.25;;;;;;;16.68;94.85;99816.48;1766430;80;21246;-80
2022/10/26 10:02:47;;;;;;;71.25;35.88;;;;;;;16.82;94.19;99818.05;1783775;80;21852;-79
2022/10/26 10:05:47;;;;;;;66.50;34.30;;;;;;;16.78;94.08;99820.42;1783098;80;21778;-79
2022/10/26 10:09:19;;;;;;;59.00;29.80;;;;;;;16.68;94.19;99815.94;1784623;80;21214;-79
2022/10/26 10:12:27;;;;;;;53.28;23.90;;;;;;;16.54;95.14;99824.05;1733497;81;21215;-79
2022/10/26 10:15:34;;;;;;;32.95;18.67;;;;;;;16.63;94.30;99814.94;1755534;81;21180;-80
2022/10/26 10:18:39;;;;;;;30.57;16.97;;;;;;;16.63;93.69;99819.08;1756694;80;21175;-80
2022/10/26 10:21:54;;;;;;;35.40;18.50;;;;;;;16.65;93.11;99823.83;1754008;80;21800;-79
2022/10/26 10:25:05;;;;;;;30.40;16.23;;;;;;;16.40;93.18;99827.46;1749703;81;21255;-80
2022/10/26 10:28:29;;;;;;;32.30;18.65;;;;;;;16.45;93.32;99831.77;1746462;80;21311;-80
2022/10/26 10:31:38;;;;;;;29.07;15.93;;;;;;;16.45;93.11;99831.77;1752586;80;21840;-80
2022/10/26 10:34:44;;;;;;;32.48;16.80;;;;;;;16.42;93.31;99836.38;1750470;80;21195;-80
2022/10/26 10:37:49;;;;;;;33.58;14.70;;;;;;;16.40;93.40;99835.73;1767900;80;21148;-80
2022/10/26 10:41:03;;;;;;;27.35;15.20;;;;;;;16.31;94.07;99831.03;1749966;80;21175;-80
2022/10/26 10:44:21;;;;;;;18.40;10.68;;;;;;;16.39;93.98;99838.73;1762824;80;21164;-78
2022/10/26 10:47:38;;;;;;;24.65;13.95;;;;;;;16.55;93.19;99833.47;1776182;80;21664;-78
2022/10/26 10:50:44;;;;;;;33.58;15.03;;;;;;;16.71;91.92;99824.31;1751983;81;21743;-79
2022/10/26 10:53:59;;;;;;;23.27;13.00;;;;;;;16.67;92.40;99828.60;1759429;80;21173;-79
2022/10/26 10:57:17;;;;;;;24.77;12.30;;;;;;;16.69;92.70;99823.68;1739519;81;21188;-79
2022/10/26 11:00:26;;;;;;;21.35;10.78;;;;;;;16.79;92.72;99822.65;1757124;81;21249;-79
2022/10/26 11:03:56;;;;;;;19.62;9.63;;;;;;;16.96;92.10;99833.41;1724296;81;21229;-80
2022/10/26 11:07:03;;;;;;;14.25;8.80;;;;;;;16.99;91.59;99826.59;1767817;81;21189;-79
2022/10/26 11:10:10;;;;;;;14.55;8.60;;;;;;;16.76;92.05;99835.02;1763884;81;21169;-80
2022/10/26 11:13:23;;;;;;;15.93;8.78;;;;;;;16.74;91.92;99833.53;1763972;81;21201;-79
2022/10/26 11:16:46;;;;;;;12.80;7.55;;;;;;;16.94;90.85;99836.95;1766538;81;21688;-80
2022/10/26 11:20:03;;;;;;;16.95;8.98;;;;;;;16.81;90.91;99829.64;1776845;80;21157;-79
2022/10/26 11:23:21;;;;;;;10.30;7.50;;;;;;;16.99;89.70;99830.73;1756944;80;21470;-80
2022/10/26 11:26:42;;;;;;;18.10;8.83;;;;;;;17.06;88.68;99832.33;1766382;80;21219;-79
2022/10/26 11:30:12;;;;;;;13.95;7.90;;;;;;;17.07;88.54;99831.25;1731657;82;21386;-79
2022/10/26 11:33:34;;;;;;;10.38;7.17;;;;;;;16.98;88.36;99836.77;1775049;80;21185;-79
2022/10/26 11:36:41;;;;;;;9.88;7.42;;;;;;;16.89;88.18;99840.94;1710999;81;22412;-79
2022/10/26 11:39:56;;;;;;;14.33;6.83;;;;;;;16.94;88.14;99841.09;1750826;81;21179;-79
2022/10/26 11:43:25;;;;;;;9.93;7.92;;;;;;;17.05;87.51;99844.47;1751849;82;21798;-80
2022/10/26 11:46:40;;;;;;;12.20;8.83;;;;;;;17.11;87.22;99850.45;1747599;81;21746;-80
2022/10/26 11:49:59;;;;;;;10.40;7.33;;;;;;;17.05;87.01;99845.84;1699779;82;21247;-80
2022/10/26 11:53:08;;;;;;;12.43;9.15;;;;;;;17.10;86.34;99847.38;1697501;84;21191;-80
2022/10/26 11:56:26;;;;;;;14.40;10.20;;;;;;;17.13;85.94;99854.92;1702067;84;21251;-80
2022/10/26 11:59:37;;;;;;;12.90;9.65;;;;;;;17.05;85.89;99862.42;1694457;84;21247;-79
2022/10/26 12:02:49;;;;;;;12.40;9.28;;;;;;;17.20;85.23;99857.05;1732736;81;21227;-79
2022/10/26 12:05:58;;;;;;;11.18;8.45;;;;;;;17.12;85.53;99866.48;1766455;80;21128;-79
2022/10/26 12:09:14;;;;;;;12.85;8.80;;;;;;;17.24;85.01;99874.33;1751208;81;21207;-78
2022/10/26 12:12:30;;;;;;;14.20;9.18;;;;;;;17.15;84.82;99873.48;1753303;81;21821;-79
2022/10/26 12:15:58;;;;;;;11.95;8.98;;;;;;;17.00;85.27;99869.72;1755616;80;21186;-80
2022/10/26 12:19:09;;;;;;;10.80;8.10;;;;;;;17.20;84.37;99870.87;1752401;80;21191;-80
2022/10/26 12:22:19;;;;;;;12.93;8.60;;;;;;;17.13;84.24;99881.17;1757818;80;21167;-79
2022/10/26 12:25:27;;;;;;;8.35;6.85;;;;;;;17.18;83.61;99880.78;1759536;80;21518;-79
2022/10/26 12:28:46;;;;;;;10.18;8.05;;;;;;;17.15;83.49;99885.92;1761134;80;21204;-79
2022/10/26 12:31:53;;;;;;;8.33;7.12;;;;;;;16.93;83.92;99883.58;1763288;80;21648;-79
2022/10/26 12:35:02;;;;;;;10.10;7.70;;;;;;;16.84;84.44;99894.61;1760136;81;21239;-79
2022/10/26 12:38:11;;;;;;;11.30;6.83;;;;;;;16.74;84.58;99901.20;1768163;80;21333;-78
2022/10/26 12:41:29;;;;;;;10.55;7.67;;;;;;;16.72;84.62;99894.53;1764929;80;21654;-78
2022/10/26 12:44:49;;;;;;;17.20;10.50;;;;;;;16.70;84.54;99897.16;1752129;80;21259;-79
2022/10/26 12:48:00;;;;;;;19.07;12.85;;;;;;;16.65;84.92;99903.36;1753265;80;21180;-79
2022/10/26 12:51:30;;;;;;;16.55;11.83;;;;;;;16.43;85.74;99909.83;1782619;79;21295;-79
2022/10/26 12:54:52;;;;;;;24.90;14.53;;;;;;;16.30;86.40;99915.44;1784431;80;21294;-78
2022/10/26 12:58:15;;;;;;;23.38;14.20;;;;;;;16.46;85.46;99926.45;1780738;80;21188;-79
2022/10/26 13:01:34;;;;;;;18.40;13.43;;;;;;;16.24;86.01;99926.00;1787473;80;21797;-78
2022/10/26 13:04:58;;;;;;;;;;;;;;;16.24;86.33;99926.84;1790381;80;21203;-79
2022/10/26 13:08:12;;;;;;;16.62;11.50;;;;;;;16.04;86.58;99926.98;1788123;80;20221;-78
2022/10/26 13:11:29;;;;;;;15.43;10.60;;;;;;;16.05;85.96;99932.80;1787535;80;21734;-78
2022/10/26 13:14:45;;;;;;;16.87;10.65;;;;;;;16.08;85.64;99936.47;1788197;80;21808;-78
2022/10/26 13:17:57;;;;;;;13.95;9.63;;;;;;;15.81;86.89;99935.80;1788630;80;21182;-78
2022/10/26 13:21:14;;;;;;;13.25;9.90;;;;;;;15.90;86.48;99936.89;1767337;80;21199;-79
2022/10/26 13:24:20;;;;;;;14.93;8.95;;;;;;;15.91;86.57;99939.98;1764261;81;21235;-78
2022/10/26 13:27:23;;;;;;;13.45;9.68;;;;;;;15.82;86.97;99943.53;1732666;83;21771;-78
2022/10/26 13:30:42;;;;;;;21.12;10.60;;;;;;;15.75;87.43;99944.92;1788997;80;21172;-78
2022/10/26 13:33:49;;;;;;;11.73;8.40;;;;;;;15.63;88.14;99943.05;1788950;80;21179;-78
2022/10/26 13:37:31;;;;;;;17.52;9.85;;;;;;;15.66;88.04;99948.14;1788908;80;21175;-78
2022/10/26 13:40:36;;;;;;;14.58;10.43;;;;;;;15.58;88.31;99947.31;1700264;84;21239;-78
2022/10/26 13:43:44;;;;;;;16.55;10.93;;;;;;;15.64;88.30;99955.80;1700098;84;21250;-78
2022/10/26 13:46:49;;;;;;;11.48;9.50;;;;;;;15.51;88.78;99953.89;1764827;81;21195;-78
2022/10/26 13:49:54;;;;;;;12.70;10.03;;;;;;;15.54;88.83;99952.94;1774896;80;21794;-78
2022/10/26 13:53:06;;;;;;;16.27;10.63;;;;;;;15.58;88.87;99954.20;1762794;81;21291;-78
2022/10/26 13:56:32;;;;;;;14.50;9.85;;;;;;;15.76;88.30;99955.41;1762490;81;21810;-78
2022/10/26 13:59:37;;;;;;;9.95;7.90;;;;;;;15.63;88.41;99960.97;1763732;81;21179;-78
2022/10/26 14:02:46;;;;;;;13.70;9.08;;;;;;;15.68;87.95;99959.28;1763068;81;21738;-78
2022/10/26 14:05:52;;;;;;;10.68;8.68;;;;;;;15.64;87.95;99960.78;1745623;81;21318;-78
2022/10/26 14:09:00;;;;;;;12.93;9.05;;;;;;;15.74;87.69;99957.55;1763602;81;22514;-78
2022/10/26 14:12:09;;;;;;;11.03;8.43;;;;;;;15.79;86.60;99964.64;1763593;81;21821;-78
2022/10/26 14:15:15;;;;;;;8.93;6.65;;;;;;;15.93;85.54;99970.41;1763758;81;21479;-78
2022/10/26 14:18:29;;;;;;;8.30;7.12;;;;;;;15.77;85.49;99972.30;1763754;81;21183;-78
2022/10/26 14:21:34;;;;;;;8.50;7.20;;;;;;;15.69;85.54;99978.89;1762737;81;21195;-78
2022/10/26 14:24:43;;;;;;;9.83;7.53;;;;;;;15.68;84.91;99974.45;1762221;81;21219;-78
2022/10/26 14:27:49;;;;;;;8.93;7.22;;;;;;;15.80;84.10;99975.98;1764693;81;21155;-78
2022/10/26 14:30:56;;;;;;;15.85;7.20;;;;;;;15.87;83.54;99980.10;1763965;81;21239;-77
2022/10/26 14:34:03;;;;;;;8.95;7.33;;;;;;;15.87;83.42;99982.86;1762326;81;21220;-78
2022/10/26 14:37:09;;;;;;;10.72;7.15;;;;;;;15.65;84.05;99983.14;1762682;81;21833;-78
2022/10/26 14:40:23;;;;;;;8.65;6.80;;;;;;;15.66;84.06;99988.12;1762111;81;21199;-77
2022/10/26 14:43:30;;;;;;;8.98;6.75;;;;;;;15.71;83.74;99989.69;1763112;81;21191;-77
2022/10/26 14:46:40;;;;;;;8.68;6.35;;;;;;;15.58;84.03;99991.41;1764313;81;21140;-78
2022/10/26 14:49:51;;;;;;;9.35;6.20;;;;;;;15.72;83.28;99996.39;1764575;81;21136;-78
2022/10/26 14:53:06;;;;;;;7.62;6.08;;;;;;;15.58;83.45;99994.17;1791248;78;21735;-78